Time;durP1;ratioP1;P1;durP2;ratioP2;P2;SDS_P1;SDS_P2;PMS_P1;PMS_P2;Temp;Humidity;BMP_temperature;BMP_pressure;BME280_temperature;BME280_humidity;BME280_pressure;Samples;Min_cycle;Max_cycle;Signal;HPM_P1;HPM_P2
2022/03/11 00:00:44;;;;;;;11.52;6.32;;;10.40;70.60;;;;;;5054061;28;20047;-70
2022/03/11 00:03:48;;;;;;;12.38;6.60;;;10.40;70.90;;;;;;5053884;28;20056;-70
2022/03/11 00:06:52;;;;;;;13.73;6.63;;;10.30;71.00;;;;;;5053820;28;20044;-69
2022/03/11 00:09:57;;;;;;;10.18;6.70;;;10.20;71.50;;;;;;5053452;28;20056;-69
2022/03/11 00:13:01;;;;;;;13.98;7.38;;;10.20;71.40;;;;;;5052527;28;20428;-69
2022/03/11 00:16:05;;;;;;;14.43;7.10;;;10.20;71.50;;;;;;5053023;28;20055;-69
2022/03/11 00:19:08;;;;;;;12.10;6.65;;;10.20;71.90;;;;;;5053320;28;20104;-69
2022/03/11 00:22:12;;;;;;;11.20;6.50;;;10.10;72.00;;;;;;5052480;28;20043;-69
2022/03/11 00:25:17;;;;;;;14.57;6.60;;;10.10;71.90;;;;;;5053416;28;20056;-69
2022/03/11 00:28:21;;;;;;;11.02;6.55;;;10.10;72.00;;;;;;5053270;28;20044;-69
2022/03/11 00:31:28;;;;;;;13.88;7.03;;;10.00;71.90;;;;;;5050723;28;20056;-70
2022/03/11 00:34:32;;;;;;;13.90;6.13;;;10.10;72.10;;;;;;5053092;28;20047;-69
2022/03/11 00:37:40;;;;;;;12.23;6.30;;;10.00;72.10;;;;;;5053200;28;20047;-69
2022/03/11 00:40:44;;;;;;;12.00;6.57;;;10.10;71.50;;;;;;5053116;28;20059;-70
2022/03/11 00:43:48;;;;;;;14.40;6.60;;;10.10;71.30;;;;;;5052907;28;20068;-70
2022/03/11 00:46:52;;;;;;;15.65;7.70;;;10.10;70.70;;;;;;5052986;28;20052;-70
2022/03/11 00:49:56;;;;;;;15.52;6.75;;;10.10;70.90;;;;;;5052516;28;20051;-69
2022/03/11 00:53:02;;;;;;;9.93;6.40;;;10.10;70.70;;;;;;5052752;28;20059;-69
2022/03/11 00:56:06;;;;;;;10.30;6.65;;;10.00;70.40;;;;;;5052594;28;20459;-69
2022/03/11 00:59:10;;;;;;;13.38;6.82;;;9.80;71.00;;;;;;5052011;28;20047;-68
2022/03/11 01:02:14;;;;;;;13.20;7.10;;;9.70;71.00;;;;;;5052750;28;20499;-69
2022/03/11 01:05:19;;;;;;;13.85;6.63;;;9.70;71.10;;;;;;5052471;28;20047;-69
2022/03/11 01:08:23;;;;;;;17.15;7.05;;;9.80;71.40;;;;;;5052375;28;20057;-69
2022/03/11 01:11:27;;;;;;;12.52;6.47;;;9.70;71.00;;;;;;5051308;28;20056;-69
2022/03/11 01:14:31;;;;;;;14.38;5.82;;;9.70;70.20;;;;;;5052204;28;20040;-69
2022/03/11 01:17:36;;;;;;;12.80;5.85;;;9.70;69.10;;;;;;5052547;28;20040;-69
2022/03/11 01:20:40;;;;;;;8.88;5.57;;;9.80;68.60;;;;;;5052344;28;20052;-69
2022/03/11 01:23:44;;;;;;;12.50;6.32;;;9.80;67.30;;;;;;5051339;28;20484;-69
2022/03/11 01:26:48;;;;;;;11.30;5.88;;;9.90;67.00;;;;;;5052105;28;20060;-69
2022/03/11 01:29:52;;;;;;;14.23;6.07;;;10.00;67.40;;;;;;5050825;28;20047;-69
2022/03/11 01:32:56;;;;;;;16.40;6.57;;;10.00;66.70;;;;;;5051134;28;20060;-69
2022/03/11 01:35:59;;;;;;;15.57;6.05;;;10.00;66.60;;;;;;5051631;28;20039;-70
2022/03/11 01:39:03;;;;;;;13.00;6.13;;;10.00;66.00;;;;;;5051329;28;20063;-71
2022/03/11 01:42:09;;;;;;;11.10;5.60;;;10.00;66.80;;;;;;5050938;28;20048;-70
2022/03/11 01:45:13;;;;;;;15.43;7.28;;;9.90;65.70;;;;;;5051720;28;20392;-70
2022/03/11 01:48:17;;;;;;;10.00;5.70;;;9.90;66.30;;;;;;5051577;28;20080;-70
2022/03/11 01:51:22;;;;;;;14.80;7.32;;;9.90;65.70;;;;;;5051554;28;20048;-68
2022/03/11 01:54:27;;;;;;;13.75;6.07;;;9.90;66.40;;;;;;5051743;28;20048;-70
2022/03/11 01:57:36;;;;;;;11.90;5.88;;;9.80;66.70;;;;;;5051344;28;20052;-69
2022/03/11 02:00:40;;;;;;;10.05;5.45;;;9.80;65.70;;;;;;5051222;28;20051;-68
2022/03/11 02:03:44;;;;;;;11.63;6.25;;;9.80;65.40;;;;;;5050491;28;20056;-69
2022/03/11 02:06:49;;;;;;;11.38;5.90;;;9.80;65.50;;;;;;5050749;28;20048;-69
2022/03/11 02:09:53;;;;;;;9.80;5.45;;;9.80;65.90;;;;;;5051187;28;20052;-69
2022/03/11 02:13:05;;;;;;;10.23;5.80;;;9.80;65.20;;;;;;5051347;28;20049;-70
2022/03/11 02:16:19;;;;;;;12.88;6.22;;;9.80;66.60;;;;;;5051097;28;20056;-69
2022/03/11 02:19:24;;;;;;;11.05;6.20;;;9.70;67.20;;;;;;5051284;28;20047;-69
2022/03/11 02:22:34;;;;;;;10.50;6.45;;;9.60;66.90;;;;;;5038976;28;20109;-69
2022/03/11 02:25:41;;;;;;;10.38;5.75;;;9.70;67.10;;;;;;5051121;28;20384;-69
2022/03/11 02:28:46;;;;;;;11.75;6.32;;;9.60;66.80;;;;;;5051115;28;20040;-69
2022/03/11 02:31:50;;;;;;;9.85;6.45;;;9.70;67.00;;;;;;5050706;28;20056;-69
2022/03/11 02:34:54;;;;;;;13.65;5.65;;;9.70;66.70;;;;;;5050904;28;20033;-69
2022/03/11 02:37:57;;;;;;;12.35;6.32;;;9.60;67.30;;;;;;5051041;28;20044;-69
2022/03/11 02:41:01;;;;;;;10.00;6.05;;;9.50;66.80;;;;;;5038731;28;20048;-69
2022/03/11 02:44:05;;;;;;;12.40;5.95;;;9.50;66.90;;;;;;5051501;28;20123;-69
2022/03/11 02:47:09;;;;;;;11.30;6.00;;;9.40;67.00;;;;;;5050140;28;20094;-70
2022/03/11 02:50:13;;;;;;;9.38;5.93;;;9.30;67.60;;;;;;5050505;28;20052;-70
2022/03/11 02:53:17;;;;;;;8.30;6.32;;;9.30;66.80;;;;;;5049717;28;20033;-70
2022/03/11 02:56:22;;;;;;;10.45;5.93;;;9.40;65.70;;;;;;5050612;28;20381;-70
2022/03/11 02:59:26;;;;;;;8.30;5.85;;;9.40;66.10;;;;;;5050453;28;20044;-70
2022/03/11 03:02:30;;;;;;;9.48;4.95;;;9.40;66.00;;;;;;5050538;28;20037;-71
2022/03/11 03:05:34;;;;;;;12.43;6.90;;;9.30;65.70;;;;;;5050673;28;20040;-70
2022/03/11 03:08:38;;;;;;;13.98;6.55;;;9.30;65.60;;;;;;5050891;28;20044;-70
2022/03/11 03:11:42;;;;;;;12.38;6.07;;;9.30;65.10;;;;;;5050476;28;20064;-70
2022/03/11 03:14:46;;;;;;;10.77;6.40;;;9.40;64.60;;;;;;5050507;28;20048;-71
2022/03/11 03:17:50;;;;;;;10.13;6.03;;;9.40;64.30;;;;;;5050707;28;20562;-71
2022/03/11 03:20:53;;;;;;;9.32;6.03;;;9.30;64.50;;;;;;5050571;28;20044;-69
2022/03/11 03:23:57;;;;;;;10.70;5.63;;;9.30;64.50;;;;;;5050290;28;20037;-70
2022/03/11 03:27:02;;;;;;;7.97;5.40;;;9.30;65.00;;;;;;5049772;28;20048;-70
2022/03/11 03:30:07;;;;;;;10.73;6.45;;;9.20;65.60;;;;;;5050658;28;20033;-70
2022/03/11 03:33:11;;;;;;;12.68;6.72;;;9.20;65.90;;;;;;5050589;28;20056;-70
2022/03/11 03:36:15;;;;;;;11.77;5.82;;;9.10;65.90;;;;;;5050525;28;20042;-70
2022/03/11 03:39:19;;;;;;;8.52;5.32;;;9.10;64.70;;;;;;5050498;28;20075;-70
2022/03/11 03:42:23;;;;;;;12.77;6.00;;;9.20;63.90;;;;;;5050458;28;20041;-70
2022/03/11 03:45:27;;;;;;;8.55;5.43;;;9.30;62.90;;;;;;5050290;28;20052;-70
2022/03/11 03:48:30;;;;;;;15.88;6.43;;;9.20;66.30;;;;;;5049118;28;20044;-70
2022/03/11 03:51:34;;;;;;;8.95;5.82;;;9.10;67.10;;;;;;5050131;28;20060;-70
2022/03/11 03:54:39;;;;;;;10.45;6.25;;;9.10;67.90;;;;;;5050063;28;20381;-70
2022/03/11 03:57:43;;;;;;;11.32;6.40;;;9.10;68.20;;;;;;5050359;28;20053;-70
2022/03/11 04:00:47;;;;;;;10.50;6.80;;;9.00;66.90;;;;;;5051089;28;20048;-70
2022/03/11 04:03:51;;;;;;;12.98;6.32;;;8.90;68.00;;;;;;5050346;28;20051;-70
2022/03/11 04:06:55;;;;;;;11.48;6.25;;;8.80;68.10;;;;;;5053861;28;20056;-70
2022/03/11 04:09:59;;;;;;;13.90;6.57;;;8.80;67.80;;;;;;5053610;28;20052;-69
2022/03/11 04:13:03;;;;;;;10.85;6.00;;;8.80;68.20;;;;;;5053521;28;20048;-69
2022/03/11 04:16:07;;;;;;;10.05;6.00;;;8.70;68.70;;;;;;5053397;28;20048;-70
2022/03/11 04:19:11;;;;;;;9.45;6.22;;;8.70;69.20;;;;;;5054120;28;20060;-69
2022/03/11 04:22:15;;;;;;;13.68;6.50;;;8.70;69.30;;;;;;5053807;28;20041;-69
2022/03/11 04:25:19;;;;;;;14.48;6.38;;;8.60;69.70;;;;;;5053496;28;20043;-69
2022/03/11 04:28:22;;;;;;;12.07;6.22;;;8.60;70.20;;;;;;5053322;28;20495;-69
2022/03/11 04:31:26;;;;;;;10.90;6.07;;;8.50;70.60;;;;;;5053239;28;20063;-69
2022/03/11 04:34:30;;;;;;;12.07;6.50;;;8.30;71.10;;;;;;5053055;28;20049;-68
2022/03/11 04:37:35;;;;;;;12.65;6.18;;;8.30;71.50;;;;;;5053374;28;20051;-70
2022/03/11 04:40:40;;;;;;;16.27;6.53;;;8.40;70.90;;;;;;5053205;28;20150;-70
2022/03/11 04:43:45;;;;;;;9.00;5.97;;;8.40;71.10;;;;;;5053294;28;20036;-71
2022/03/11 04:46:49;;;;;;;13.80;6.25;;;8.30;71.00;;;;;;5053044;28;20370;-70
2022/03/11 04:49:54;;;;;;;14.52;6.15;;;8.20;71.50;;;;;;5051874;28;20040;-70
2022/03/11 04:52:58;;;;;;;10.90;6.32;;;8.10;71.40;;;;;;5052766;28;20044;-70
2022/03/11 04:56:04;;;;;;;17.42;6.15;;;8.00;71.40;;;;;;5052890;28;20043;-70
2022/03/11 04:59:08;;;;;;;9.68;5.90;;;8.10;71.60;;;;;;5052855;28;20397;-70
2022/03/11 05:02:12;;;;;;;14.63;6.63;;;8.10;71.60;;;;;;5052669;28;20040;-70
2022/03/11 05:05:16;;;;;;;16.23;6.47;;;8.10;71.10;;;;;;5051852;28;20072;-70
2022/03/11 05:08:20;;;;;;;12.35;6.55;;;8.10;71.00;;;;;;5052904;28;20052;-70
2022/03/11 05:11:24;;;;;;;17.02;6.32;;;8.10;71.20;;;;;;5052526;28;20052;-70
2022/03/11 05:14:28;;;;;;;9.77;6.47;;;8.10;71.00;;;;;;5051312;28;20043;-69
2022/03/11 05:17:32;;;;;;;12.43;5.90;;;8.00;71.40;;;;;;5051700;28;20045;-69
2022/03/11 05:20:37;;;;;;;13.77;6.43;;;8.10;71.10;;;;;;5052049;28;20526;-69
2022/03/11 05:23:42;;;;;;;11.85;6.38;;;8.10;71.00;;;;;;5051801;28;20820;-71
2022/03/11 05:26:46;;;;;;;13.23;6.93;;;7.90;71.30;;;;;;5052392;28;20048;-69
2022/03/11 05:29:50;;;;;;;16.67;7.38;;;7.90;71.70;;;;;;5052386;28;20047;-71
2022/03/11 05:32:54;;;;;;;14.50;7.03;;;7.90;71.80;;;;;;5052006;28;20409;-70
2022/03/11 05:35:58;;;;;;;15.10;6.30;;;7.90;71.80;;;;;;5052210;28;20044;-70
2022/03/11 05:39:02;;;;;;;12.77;6.63;;;7.90;71.80;;;;;;5052048;28;20052;-69
2022/03/11 05:42:07;;;;;;;13.80;6.68;;;7.90;71.00;;;;;;5051915;28;20404;-70
2022/03/11 05:45:12;;;;;;;13.30;6.22;;;7.90;71.00;;;;;;5051858;28;20051;-71
2022/03/11 05:48:16;;;;;;;13.48;6.68;;;7.90;70.70;;;;;;5051824;28;20052;-70
2022/03/11 05:51:22;;;;;;;16.25;7.03;;;8.10;70.40;;;;;;5051513;28;20063;-70
2022/03/11 05:54:25;;;;;;;58.85;10.38;;;8.40;70.40;;;;;;5051278;28;20063;-70
2022/03/11 05:57:33;;;;;;;22.25;8.18;;;8.60;70.50;;;;;;5051558;28;20063;-70
2022/03/11 06:00:36;;;;;;;14.82;8.25;;;9.60;68.40;;;;;;5051479;28;20055;-70
2022/03/11 06:03:40;;;;;;;11.65;6.50;;;10.60;65.10;;;;;;5051447;28;20049;-71
2022/03/11 06:06:44;;;;;;;12.32;7.28;;;11.80;61.00;;;;;;5051585;28;20052;-70
2022/03/11 06:09:48;;;;;;;12.38;7.93;;;12.80;58.50;;;;;;5051275;28;20048;-70
2022/03/11 06:12:52;;;;;;;22.27;8.02;;;13.50;56.70;;;;;;5051398;28;20044;-69
2022/03/11 06:15:56;;;;;;;19.30;8.98;;;13.80;55.50;;;;;;5050961;28;20060;-70
2022/03/11 06:19:00;;;;;;;20.85;9.25;;;14.00;55.60;;;;;;5050868;28;20052;-70
2022/03/11 06:22:04;;;;;;;18.65;8.25;;;13.90;55.90;;;;;;5050503;28;20495;-71
2022/03/11 06:25:09;;;;;;;14.63;8.25;;;13.90;55.70;;;;;;5051196;28;20060;-71
2022/03/11 06:28:13;;;;;;;17.90;9.05;;;13.90;55.30;;;;;;5051197;28;20048;-70
2022/03/11 06:31:17;;;;;;;21.58;9.35;;;13.80;55.70;;;;;;5051134;28;20099;-69
2022/03/11 06:34:20;;;;;;;15.23;7.38;;;14.20;55.30;;;;;;5050790;28;20039;-68
2022/03/11 06:37:24;;;;;;;15.82;7.93;;;14.70;53.70;;;;;;5050994;28;20039;-69
2022/03/11 06:40:28;;;;;;;18.17;7.97;;;15.30;52.40;;;;;;5050101;28;20417;-70
2022/03/11 06:43:33;;;;;;;18.73;8.20;;;15.60;51.50;;;;;;5049875;28;20155;-68
2022/03/11 06:46:37;;;;;;;16.27;7.35;;;16.00;51.60;;;;;;5049854;28;20389;-72
2022/03/11 06:49:41;;;;;;;16.63;8.05;;;15.70;51.20;;;;;;5050710;28;20067;-72
2022/03/11 06:52:45;;;;;;;12.23;7.40;;;15.10;51.80;;;;;;5050993;28;20262;-70
2022/03/11 06:55:53;;;;;;;13.98;7.90;;;15.00;52.50;;;;;;5039463;28;20044;-83
2022/03/11 06:58:57;;;;;;;14.35;7.78;;;14.70;52.60;;;;;;5051104;28;20389;-81
2022/03/11 07:02:01;;;;;;;22.17;7.65;;;14.40;52.70;;;;;;5051432;28;20048;-78
2022/03/11 07:05:09;;;;;;;13.02;6.93;;;14.30;53.20;;;;;;5054515;28;20551;-84
2022/03/11 07:08:14;;;;;;;20.17;10.05;;;14.40;52.90;;;;;;5051176;28;20040;-84
2022/03/11 07:11:18;;;;;;;19.67;7.85;;;14.50;53.30;;;;;;5051526;28;20511;-73
2022/03/11 07:14:22;;;;;;;14.80;7.10;;;14.40;53.10;;;;;;5050370;28;20526;-67
2022/03/11 07:17:27;;;;;;;15.30;7.55;;;14.20;52.50;;;;;;5050737;28;20052;-67
2022/03/11 07:20:31;;;;;;;12.48;7.28;;;14.10;53.80;;;;;;5050770;28;20047;-68
2022/03/11 07:23:35;;;;;;;21.95;8.43;;;14.10;54.20;;;;;;5050488;28;20048;-66
2022/03/11 07:26:39;;;;;;;16.75;7.53;;;14.10;54.20;;;;;;5050581;28;20044;-66
2022/03/11 07:29:43;;;;;;;10.98;5.80;;;14.00;54.50;;;;;;5050649;28;20048;-67
2022/03/11 07:32:47;;;;;;;14.15;7.22;;;14.10;55.00;;;;;;5050245;28;20051;-66
2022/03/11 07:36:13;;;;;;;20.98;6.80;;;14.30;54.20;;;;;;5049410;28;20040;-66
2022/03/11 07:39:54;;;;;;;18.02;8.07;;;14.40;53.80;;;;;;5051155;28;20044;-67
2022/03/11 07:42:58;;;;;;;16.60;8.65;;;14.50;54.20;;;;;;5054072;28;20060;-67
2022/03/11 07:46:03;;;;;;;17.83;6.95;;;14.50;53.70;;;;;;5053799;28;20060;-71
2022/03/11 07:50:00;;;;;;;9.52;5.53;;;14.30;53.40;;;;;;5053788;28;20040;-71
2022/03/11 07:53:07;;;;;;;102.53;13.27;;;14.30;52.20;;;;;;5053362;28;20520;-68
2022/03/11 07:56:12;;;;;;;16.38;7.30;;;14.40;53.10;;;;;;5053586;28;20388;-69
2022/03/11 07:59:16;;;;;;;9.30;5.97;;;14.50;53.20;;;;;;5052786;28;20143;-69
2022/03/11 08:02:20;;;;;;;15.18;6.40;;;14.70;51.50;;;;;;5041580;28;20052;-68
2022/03/11 08:05:24;;;;;;;11.32;5.70;;;14.60;51.40;;;;;;5053451;28;20048;-67
2022/03/11 08:08:27;;;;;;;11.85;6.43;;;14.30;51.20;;;;;;5054031;28;20040;-66
2022/03/11 08:11:33;;;;;;;7.78;5.53;;;14.00;52.60;;;;;;5052567;28;20060;-69
2022/03/11 08:14:37;;;;;;;9.75;5.45;;;14.20;52.40;;;;;;5053463;28;20040;-68
2022/03/11 08:17:41;;;;;;;9.73;5.25;;;14.10;51.30;;;;;;5053472;28;20423;-69
2022/03/11 08:20:46;;;;;;;11.60;6.15;;;14.30;52.50;;;;;;5053518;28;20115;-68
2022/03/11 08:23:50;;;;;;;9.40;5.75;;;14.50;52.20;;;;;;5053026;28;20048;-67
2022/03/11 08:26:54;;;;;;;12.95;5.80;;;14.40;52.00;;;;;;5053208;28;20048;-68
2022/03/11 08:29:58;;;;;;;11.57;5.75;;;14.00;52.60;;;;;;5053083;28;20491;-68
2022/03/11 08:33:03;;;;;;;7.50;6.03;;;13.90;52.20;;;;;;5052827;28;20052;-69
2022/03/11 08:36:07;;;;;;;8.32;5.82;;;13.70;52.80;;;;;;5052926;28;20203;-69
2022/03/11 08:39:11;;;;;;;10.18;6.13;;;13.50;53.60;;;;;;5052433;28;20500;-69
2022/03/11 08:42:15;;;;;;;13.38;5.40;;;13.60;53.10;;;;;;5053192;28;20040;-68
2022/03/11 08:45:22;;;;;;;8.00;5.53;;;13.70;52.70;;;;;;5052905;28;20408;-67
2022/03/11 08:48:28;;;;;;;10.68;6.70;;;13.80;52.70;;;;;;5040973;28;20507;-69
2022/03/11 08:51:32;;;;;;;11.18;6.22;;;13.70;52.20;;;;;;5051666;28;20408;-69
2022/03/11 08:54:37;;;;;;;13.32;5.70;;;13.70;52.00;;;;;;5052617;28;20083;-69
2022/03/11 08:57:48;;;;;;;13.80;6.22;;;13.80;51.90;;;;;;5052994;28;20052;-69
2022/03/11 09:00:52;;;;;;;;;;;13.80;52.00;;;;;;5053046;28;20534;-69
2022/03/11 09:03:57;;;;;;;10.55;5.22;;;13.70;51.10;;;;;;5052653;28;19943;-68
2022/03/11 09:07:01;;;;;;;10.85;6.43;;;13.80;51.70;;;;;;5051832;28;20059;-68
2022/03/11 09:10:10;;;;;;;8.65;5.97;;;13.80;51.10;;;;;;5052891;28;20386;-69
2022/03/11 09:13:14;;;;;;;12.02;6.00;;;13.80;50.30;;;;;;5052322;28;20064;-71
2022/03/11 09:16:18;;;;;;;13.25;5.65;;;13.70;50.50;;;;;;5052354;28;20056;-68
2022/03/11 09:19:23;;;;;;;9.85;6.22;;;13.50;51.80;;;;;;5052316;28;20400;-68
2022/03/11 09:22:29;;;;;;;9.48;6.30;;;13.60;51.50;;;;;;5052290;28;20048;-68
2022/03/11 09:25:37;;;;;;;11.30;6.13;;;13.80;51.00;;;;;;5052596;28;20444;-69
2022/03/11 09:28:42;;;;;;;11.52;5.75;;;13.70;50.10;;;;;;5052306;28;20068;-70
2022/03/11 09:31:46;;;;;;;15.25;6.60;;;13.60;50.00;;;;;;5051558;28;20056;-71
2022/03/11 09:34:50;;;;;;;17.65;6.57;;;13.80;51.00;;;;;;5052208;28;20492;-69
2022/03/11 09:37:53;;;;;;;9.73;5.53;;;14.00;50.90;;;;;;5051225;28;20052;-70
2022/03/11 09:41:00;;;;;;;12.40;5.85;;;13.90;50.70;;;;;;5051913;28;20039;-70
2022/03/11 09:44:05;;;;;;;15.27;6.18;;;14.00;50.60;;;;;;5050887;28;20044;-69
2022/03/11 09:47:09;;;;;;;13.10;6.43;;;13.80;50.20;;;;;;5052004;28;20044;-69
2022/03/11 09:50:13;;;;;;;11.10;5.85;;;13.70;50.60;;;;;;5051162;28;20052;-69
2022/03/11 09:53:19;;;;;;;17.15;7.10;;;13.90;50.40;;;;;;5050695;28;20052;-68
2022/03/11 09:56:24;;;;;;;16.75;6.18;;;13.90;50.60;;;;;;5051677;28;20044;-69
2022/03/11 09:59:29;;;;;;;8.95;5.85;;;13.80;50.20;;;;;;5051897;28;20047;-69
2022/03/11 10:02:33;;;;;;;10.07;5.25;;;13.70;50.80;;;;;;5051321;28;20048;-68
2022/03/11 10:05:45;;;;;;;10.15;6.00;;;13.80;51.10;;;;;;5051724;28;20053;-70
2022/03/11 10:08:50;;;;;;;9.77;6.15;;;13.90;49.70;;;;;;5051529;28;20085;-70
2022/03/11 10:11:57;;;;;;;9.13;6.15;;;14.00;49.80;;;;;;5051069;28;20051;-70
2022/03/11 10:15:03;;;;;;;10.43;5.90;;;14.00;49.80;;;;;;5051086;28;20048;-69
2022/03/11 10:18:08;;;;;;;10.68;6.18;;;14.10;50.00;;;;;;5051371;28;20044;-70
2022/03/11 10:21:14;;;;;;;9.85;5.80;;;14.10;50.30;;;;;;5051044;28;20052;-70
2022/03/11 10:24:20;;;;;;;9.10;6.65;;;14.30;49.40;;;;;;5050567;28;20069;-70
2022/03/11 10:27:24;;;;;;;9.18;5.75;;;14.50;48.80;;;;;;5050015;28;20044;-68
2022/03/11 10:30:40;;;;;;;8.30;5.70;;;14.40;49.80;;;;;;5051276;28;20060;-69
2022/03/11 10:33:44;;;;;;;11.18;5.53;;;14.70;50.10;;;;;;5049964;28;20055;-70
2022/03/11 10:36:54;;;;;;;10.07;6.82;;;15.00;48.90;;;;;;5051126;28;20052;-70
2022/03/11 10:40:11;;;;;;;11.95;6.13;;;15.10;48.00;;;;;;5051263;28;20055;-70
2022/03/11 10:43:20;;;;;;;12.38;6.50;;;14.70;48.10;;;;;;5050531;28;20056;-70
2022/03/11 10:46:25;;;;;;;11.40;7.50;;;14.80;47.70;;;;;;5051024;28;20044;-66
2022/03/11 10:49:34;;;;;;;15.35;7.57;;;14.90;48.90;;;;;;5050240;28;20404;-67
2022/03/11 10:52:44;;;;;;;10.23;5.90;;;15.00;48.20;;;;;;5050842;28;20420;-71
2022/03/11 10:55:48;;;;;;;8.20;5.32;;;15.20;48.60;;;;;;5050718;28;20040;-67
2022/03/11 10:58:53;;;;;;;10.80;5.97;;;15.40;49.70;;;;;;5050916;28;20499;-67
2022/03/11 11:01:58;;;;;;;8.02;6.43;;;15.80;49.00;;;;;;5050931;28;20063;-67
2022/03/11 11:05:02;;;;;;;9.55;5.70;;;16.00;50.30;;;;;;5050446;28;20507;-69
2022/03/11 11:08:09;;;;;;;9.82;6.28;;;16.20;47.00;;;;;;5050791;28;20385;-70
2022/03/11 11:11:13;;;;;;;10.32;6.75;;;16.30;47.10;;;;;;5050612;28;20491;-68
2022/03/11 11:14:17;;;;;;;10.95;6.55;;;15.80;47.00;;;;;;5050736;28;20059;-69
2022/03/11 11:17:21;;;;;;;13.73;7.10;;;15.30;47.20;;;;;;5054960;28;20055;-68
2022/03/11 11:20:53;;;;;;;16.65;7.03;;;15.00;48.80;;;;;;5054402;28;20397;-67
2022/03/11 11:23:58;;;;;;;11.57;7.40;;;15.10;48.70;;;;;;5054437;28;20048;-67
2022/03/11 11:27:02;;;;;;;11.52;5.72;;;15.10;48.40;;;;;;5053910;28;20056;-67
2022/03/11 11:30:07;;;;;;;8.07;6.35;;;14.50;48.50;;;;;;5054786;28;20055;-69
2022/03/11 11:33:13;;;;;;;11.82;6.90;;;14.30;48.60;;;;;;5053175;28;20072;-69
2022/03/11 11:36:36;;;;;;;11.05;6.75;;;14.30;49.80;;;;;;5054413;28;20396;-69
2022/03/11 11:39:43;;;;;;;9.88;6.85;;;14.30;49.80;;;;;;5053399;28;20043;-68
2022/03/11 11:43:12;;;;;;;11.40;6.07;;;14.00;49.80;;;;;;5054258;28;20044;-69
2022/03/11 11:46:20;;;;;;;10.95;6.97;;;13.80;49.70;;;;;;5053993;28;20044;-68
2022/03/11 11:49:46;;;;;;;9.18;5.90;;;13.70;50.00;;;;;;5053993;28;20040;-70
2022/03/11 11:52:54;;;;;;;13.65;6.82;;;13.60;50.50;;;;;;5042624;28;20059;-69
2022/03/11 11:55:58;;;;;;;13.25;6.95;;;13.70;49.70;;;;;;5053348;28;20044;-70
2022/03/11 11:59:07;;;;;;;11.38;7.30;;;13.60;49.50;;;;;;5053314;28;20048;-70
2022/03/11 12:02:41;;;;;;;12.02;6.45;;;13.60;49.80;;;;;;5054055;28;20044;-70
2022/03/11 12:05:50;;;;;;;11.73;6.18;;;13.60;50.40;;;;;;5053832;28;20075;-68
2022/03/11 12:08:53;;;;;;;25.48;7.10;;;13.80;50.30;;;;;;5052883;28;20060;-68
2022/03/11 12:11:57;;;;;;;11.70;6.10;;;13.80;50.30;;;;;;5053430;28;20076;-68
2022/03/11 12:15:04;;;;;;;10.75;6.13;;;13.60;50.90;;;;;;5053086;28;20392;-70
2022/03/11 12:18:42;;;;;;;12.60;6.43;;;13.70;50.00;;;;;;5053709;28;20051;-70
2022/03/11 12:21:46;;;;;;;10.60;6.05;;;13.50;49.60;;;;;;5053193;28;20048;-69
2022/03/11 12:24:59;;;;;;;15.35;6.55;;;13.40;50.30;;;;;;5052500;28;20413;-68
2022/03/11 12:28:08;;;;;;;19.48;7.15;;;13.30;50.60;;;;;;5053848;28;20048;-68
2022/03/11 12:31:21;;;;;;;15.82;7.68;;;13.30;51.00;;;;;;5053395;28;20040;-68
2022/03/11 12:34:25;;;;;;;10.00;6.80;;;13.40;50.20;;;;;;5053085;28;20298;-68
2022/03/11 12:37:29;;;;;;;11.45;7.40;;;13.20;51.20;;;;;;5053419;28;20044;-69
2022/03/11 12:40:34;;;;;;;11.48;6.18;;;13.30;51.20;;;;;;5053280;28;20047;-68
2022/03/11 12:43:44;;;;;;;15.05;6.80;;;13.40;49.90;;;;;;5053177;28;20044;-69
2022/03/11 12:46:48;;;;;;;13.00;6.60;;;13.40;50.20;;;;;;5052907;28;20064;-70
2022/03/11 12:50:07;;;;;;;19.17;7.80;;;13.40;50.20;;;;;;5052806;28;20044;-69
2022/03/11 12:53:12;;;;;;;10.27;6.53;;;13.40;50.90;;;;;;5052833;28;20070;-68
2022/03/11 12:56:18;;;;;;;12.23;6.35;;;13.40;50.30;;;;;;5052894;28;20044;-68
2022/03/11 12:59:22;;;;;;;28.02;8.25;;;13.50;50.40;;;;;;5053227;28;20052;-67
2022/03/11 13:02:26;;;;;;;11.00;5.53;;;13.60;49.90;;;;;;5052866;28;20044;-68
2022/03/11 13:05:33;;;;;;;11.48;7.30;;;13.70;49.90;;;;;;5052712;28;20052;-68
2022/03/11 13:08:42;;;;;;;11.93;6.57;;;13.60;49.60;;;;;;5053000;28;20071;-70
2022/03/11 13:11:46;;;;;;;12.85;6.95;;;13.50;50.00;;;;;;5052844;28;20047;-69
2022/03/11 13:15:12;;;;;;;13.50;6.95;;;13.50;49.60;;;;;;5052458;28;20048;-69
2022/03/11 13:18:17;;;;;;;13.13;7.75;;;13.40;49.30;;;;;;5052405;28;20104;-68
2022/03/11 13:21:21;;;;;;;10.50;7.05;;;13.40;48.80;;;;;;5052378;28;20068;-70
2022/03/11 13:24:25;;;;;;;13.55;6.68;;;13.10;48.90;;;;;;5053036;28;20535;-69
2022/03/11 13:27:37;;;;;;;12.43;6.05;;;13.00;50.40;;;;;;5052313;28;20060;-68
2022/03/11 13:30:41;;;;;;;;;;;13.10;51.00;;;;;;5052593;28;20400;-68
2022/03/11 13:33:47;;;;;;;12.88;7.20;;;13.20;51.80;;;;;;5052101;28;19924;-71
2022/03/11 13:36:52;;;;;;;14.85;6.35;;;13.30;50.00;;;;;;5050833;28;20051;-70
2022/03/11 13:40:07;;;;;;;14.85;6.38;;;13.20;49.70;;;;;;5052311;28;20052;-70
2022/03/11 13:43:11;;;;;;;16.48;10.02;;;13.10;49.40;;;;;;5051971;28;20043;-69
2022/03/11 13:46:25;;;;;;;15.23;6.45;;;13.00;50.20;;;;;;5051927;28;20063;-70
2022/03/11 13:49:43;;;;;;;9.88;6.25;;;12.90;50.10;;;;;;5051147;28;20036;-67
2022/03/11 13:52:47;;;;;;;15.18;8.20;;;12.90;49.20;;;;;;5051675;28;20061;-67
2022/03/11 13:55:51;;;;;;;14.52;8.52;;;12.90;49.20;;;;;;5039346;28;20094;-69
2022/03/11 13:59:05;;;;;;;15.35;8.30;;;12.90;49.50;;;;;;5051818;28;20496;-68
2022/03/11 14:02:13;;;;;;;14.50;7.00;;;13.00;49.30;;;;;;5051689;28;20039;-68
2022/03/11 14:05:26;;;;;;;11.95;8.13;;;13.20;49.10;;;;;;5051553;28;20044;-67
2022/03/11 14:08:30;;;;;;;13.70;6.10;;;13.30;48.90;;;;;;5051052;28;20067;-68
2022/03/11 14:11:34;;;;;;;10.38;5.80;;;13.30;48.50;;;;;;5050602;28;20060;-69
2022/03/11 14:14:44;;;;;;;15.20;8.80;;;13.30;48.00;;;;;;5050991;28;20052;-68
2022/03/11 14:17:49;;;;;;;9.30;4.97;;;13.30;47.10;;;;;;5051509;28;20044;-67
2022/03/11 14:20:53;;;;;;;11.25;5.90;;;13.20;48.10;;;;;;5051235;28;20103;-68
2022/03/11 14:23:57;;;;;;;11.70;6.40;;;13.10;48.60;;;;;;5049471;28;20043;-69
2022/03/11 14:27:11;;;;;;;16.70;6.47;;;13.10;47.80;;;;;;5048928;28;20040;-69
2022/03/11 14:30:15;;;;;;;14.32;7.70;;;13.00;48.80;;;;;;5050312;28;20491;-70
2022/03/11 14:33:20;;;;;;;9.60;5.93;;;13.00;49.60;;;;;;5049457;28;20052;-68
2022/03/11 14:36:25;;;;;;;19.63;12.40;;;13.00;48.60;;;;;;5049957;28;20116;-72
2022/03/11 14:39:30;;;;;;;15.80;7.70;;;13.00;49.00;;;;;;5050361;28;20059;-70
2022/03/11 14:42:36;;;;;;;15.30;8.43;;;13.00;49.70;;;;;;5050460;28;20040;-70
2022/03/11 14:45:40;;;;;;;15.38;9.57;;;13.00;49.70;;;;;;5050118;28;20068;-67
2022/03/11 14:48:44;;;;;;;12.45;6.47;;;12.90;49.40;;;;;;5049938;28;20048;-69
2022/03/11 14:51:48;;;;;;;18.25;9.02;;;12.80;49.30;;;;;;5050524;28;20504;-67
2022/03/11 14:54:52;;;;;;;9.77;6.25;;;12.80;49.20;;;;;;5049886;28;20511;-68
2022/03/11 14:57:56;;;;;;;14.13;8.18;;;12.70;49.70;;;;;;5050149;28;20044;-68
2022/03/11 15:01:00;;;;;;;14.85;6.15;;;12.60;49.60;;;;;;5050046;28;20043;-68
2022/03/11 15:04:06;;;;;;;13.07;8.52;;;12.60;50.00;;;;;;5050060;28;20060;-70
2022/03/11 15:07:11;;;;;;;9.18;5.40;;;12.70;50.00;;;;;;5051085;28;20040;-69
2022/03/11 15:10:16;;;;;;;19.30;6.40;;;12.70;49.30;;;;;;5050066;28;20517;-69
2022/03/11 15:13:21;;;;;;;11.25;5.80;;;12.70;49.60;;;;;;5050338;28;20484;-68
2022/03/11 15:16:24;;;;;;;12.80;6.07;;;12.70;50.00;;;;;;5050105;28;20095;-69
2022/03/11 15:19:31;;;;;;;9.38;5.60;;;12.50;50.20;;;;;;5050130;28;20044;-69
2022/03/11 15:22:36;;;;;;;9.63;5.60;;;12.60;50.30;;;;;;5049321;28;20060;-70
2022/03/11 15:25:39;;;;;;;19.40;6.63;;;12.60;50.50;;;;;;5049912;28;20056;-68
2022/03/11 15:28:43;;;;;;;10.85;6.80;;;12.60;50.50;;;;;;5050103;28;20044;-69
2022/03/11 15:31:48;;;;;;;17.80;7.63;;;12.70;49.90;;;;;;5050408;28;20071;-69
2022/03/11 15:34:54;;;;;;;15.68;5.95;;;12.70;50.00;;;;;;5049843;28;20064;-68
2022/03/11 15:37:58;;;;;;;13.40;7.45;;;12.60;50.10;;;;;;5050318;28;20036;-69
2022/03/11 15:41:01;;;;;;;15.82;5.95;;;12.50;49.70;;;;;;5050575;28;20072;-67
2022/03/11 15:44:05;;;;;;;82.57;11.32;;;12.40;50.20;;;;;;5048921;28;20508;-69
2022/03/11 15:47:10;;;;;;;44.92;19.67;;;12.40;49.80;;;;;;5049623;28;20044;-70
2022/03/11 15:50:14;;;;;;;14.48;9.43;;;12.40;49.70;;;;;;5050092;28;20048;-69
2022/03/11 15:53:19;;;;;;;13.50;10.38;;;12.40;49.90;;;;;;5049161;28;20059;-68
2022/03/11 15:56:23;;;;;;;12.48;5.38;;;12.40;49.50;;;;;;5050198;28;20260;-69
2022/03/11 15:59:27;;;;;;;10.40;5.63;;;12.40;48.70;;;;;;5049367;28;20044;-72